createdAt,value
2018-10-01T00:02:10.772Z,40.5
2018-10-01T00:07:08.640Z,40.6
2018-10-01T00:12:06.366Z,40.6
2018-10-01T00:17:03.433Z,40.7
2018-10-01T00:22:00.780Z,40.7
2018-10-01T00:26:58.519Z,40.7
2018-10-01T00:31:56.225Z,40.6
2018-10-01T00:36:53.799Z,40.4
2018-10-01T00:41:51.313Z,40.3
2018-10-01T00:46:49.140Z,40.3
2018-10-01T00:51:46.796Z,40.4
2018-10-01T00:56:44.173Z,40.5
2018-10-01T01:01:41.725Z,40.5
2018-10-01T01:06:39.472Z,40.6
2018-10-01T01:11:36.990Z,40.7
2018-10-01T01:16:34.870Z,40.7
2018-10-01T01:21:32.664Z,40.7
2018-10-01T01:26:30.524Z,40.7
2018-10-01T01:31:28.172Z,40.8
2018-10-01T01:36:25.854Z,40.7
2018-10-01T01:41:23.827Z,40.6
2018-10-01T01:46:21.609Z,40.4
2018-10-01T01:51:19.484Z,40.4
2018-10-01T01:56:16.854Z,40.5
2018-10-01T02:01:14.496Z,40.6
2018-10-01T02:06:12.314Z,40.6
2018-10-01T02:11:09.814Z,40.7
2018-10-01T02:16:07.484Z,40.7
2018-10-01T02:21:05.278Z,40.8
2018-10-01T02:26:02.869Z,40.8
2018-10-01T02:31:00.743Z,40.8
2018-10-01T02:35:58.561Z,40.9
2018-10-01T02:40:56.304Z,40.9
2018-10-01T02:45:53.906Z,40.9
2018-10-01T02:50:51.632Z,40.9
2018-10-01T02:55:49.272Z,40.9
2018-10-01T03:00:47.152Z,40.7
2018-10-01T03:05:45.054Z,40.5
2018-10-01T03:10:42.673Z,40.5
2018-10-01T03:15:40.443Z,40.6
2018-10-01T03:20:38.132Z,40.7
2018-10-01T03:25:35.969Z,40.7
2018-10-01T03:30:33.619Z,40.8
2018-10-01T03:35:31.511Z,40.8
2018-10-01T03:40:29.035Z,40.8
2018-10-01T03:45:27.384Z,40.9
2018-10-01T03:50:25.141Z,40.9
2018-10-01T03:55:22.621Z,40.9
2018-10-01T04:00:20.355Z,40.9
2018-10-01T04:05:18.121Z,40.9
2018-10-01T04:10:15.996Z,40.7
2018-10-01T04:15:13.848Z,40.6
2018-10-01T04:20:11.606Z,40.6
2018-10-01T04:25:09.811Z,40.7
2018-10-01T04:30:07.731Z,40.7
2018-10-01T04:35:05.154Z,40.8
2018-10-01T04:40:03.004Z,40.8
2018-10-01T04:45:00.909Z,40.9
2018-10-01T04:49:58.554Z,40.8
2018-10-01T04:54:56.542Z,40.8
2018-10-01T04:59:53.827Z,40.8
2018-10-01T05:04:51.344Z,40.9
2018-10-01T05:09:49.329Z,40.9
2018-10-01T05:14:47.356Z,41
2018-10-01T05:19:45.080Z,40.9
2018-10-01T05:24:42.922Z,41
2018-10-01T05:29:40.475Z,40.9
2018-10-01T05:34:38.174Z,40.8
2018-10-01T05:39:35.832Z,40.7
2018-10-01T05:44:33.790Z,40.8
2018-10-01T05:49:31.553Z,40.8
2018-10-01T05:54:29.515Z,40.8
2018-10-01T05:59:27.549Z,40.9
2018-10-01T06:04:25.716Z,40.9
2018-10-01T06:09:23.338Z,40.8
2018-10-01T06:14:20.906Z,40.8
2018-10-01T06:19:18.671Z,40.8
2018-10-01T06:24:16.641Z,40.8
2018-10-01T06:29:14.305Z,40.8
2018-10-01T06:34:11.838Z,40.8
2018-10-01T06:39:09.526Z,40.9
2018-10-01T06:44:07.466Z,40.9
2018-10-01T06:49:05.280Z,40.9
2018-10-01T06:54:02.842Z,40.8
2018-10-01T06:58:59.973Z,40.8
2018-10-01T07:03:57.566Z,40.8
2018-10-01T07:08:55.627Z,40.8
2018-10-01T07:13:53.354Z,40.8
2018-10-01T07:18:51.109Z,40.8
2018-10-01T07:23:48.894Z,40.8
2018-10-01T07:28:46.650Z,40.8
2018-10-01T07:33:44.295Z,40.8
2018-10-01T07:38:41.974Z,40.8
2018-10-01T07:43:39.731Z,40.8
2018-10-01T07:48:37.470Z,40.8
2018-10-01T07:53:35.300Z,40.9
2018-10-01T07:58:32.743Z,40.9
2018-10-01T08:03:30.512Z,40.9
2018-10-01T08:08:28.638Z,41
2018-10-01T08:13:26.370Z,41.1
2018-10-01T08:18:24.114Z,41.1
2018-10-01T08:23:21.892Z,41.1
2018-10-01T08:28:19.718Z,41.2
2018-10-01T08:33:17.564Z,41.3
2018-10-01T08:38:15.531Z,41.4
2018-10-01T08:43:13.252Z,41.4
2018-10-01T08:48:10.956Z,41.5
2018-10-01T08:53:08.993Z,41.5
2018-10-01T08:58:06.877Z,41.6
2018-10-01T09:03:04.617Z,41.7
2018-10-01T09:08:02.470Z,41.7
2018-10-01T09:13:00.555Z,41.7
2018-10-01T09:17:58.597Z,41.8
2018-10-01T09:22:56.610Z,41.8
2018-10-01T09:27:54.501Z,41.8
2018-10-01T09:32:52.406Z,41.9
2018-10-01T09:37:50.363Z,41.9
2018-10-01T09:42:48.244Z,42
2018-10-01T09:47:46.093Z,42
2018-10-01T09:52:43.648Z,42.1
2018-10-01T09:57:41.616Z,42.2
2018-10-01T10:02:39.784Z,42.2
2018-10-01T10:07:37.585Z,42.3
2018-10-01T10:12:35.355Z,42.4
2018-10-01T10:17:33.245Z,42.3
2018-10-01T10:22:31.439Z,42.3
2018-10-01T10:27:29.315Z,42.3
2018-10-01T10:32:27.258Z,42.3
2018-10-01T10:37:25.184Z,42.4
2018-10-01T10:42:22.989Z,42.4
2018-10-01T10:47:20.965Z,42.4
2018-10-01T10:52:18.636Z,42.3
2018-10-01T10:57:16.439Z,42.3
2018-10-01T11:02:14.096Z,42.3
2018-10-01T11:07:12.155Z,42.3
2018-10-01T11:12:09.521Z,42.3
2018-10-01T11:17:06.913Z,42.4
2018-10-01T11:22:05.022Z,42.4
2018-10-01T11:27:02.917Z,42.4
2018-10-01T11:32:00.665Z,42.4
2018-10-01T11:36:58.630Z,42.4
2018-10-01T11:41:56.371Z,42.4
2018-10-01T11:46:54.184Z,42.4
2018-10-01T11:51:52.040Z,42.4
2018-10-01T11:56:49.417Z,42.4
2018-10-01T12:01:47.069Z,42.4
2018-10-01T12:06:44.912Z,42.4
2018-10-01T12:11:42.979Z,42.5
2018-10-01T12:16:40.910Z,42.5
2018-10-01T12:21:39.021Z,42.4
2018-10-01T12:26:36.851Z,42.5
2018-10-01T12:31:34.683Z,42.4
2018-10-01T12:36:32.278Z,42.4
2018-10-01T12:41:30.143Z,42.4
2018-10-01T12:46:28.004Z,42.5
2018-10-01T12:51:26.036Z,42.5
2018-10-01T12:56:23.708Z,42.4
2018-10-01T13:01:21.526Z,42.4
2018-10-01T13:06:19.582Z,42.4
2018-10-01T13:11:17.150Z,42.4
2018-10-01T13:16:15.089Z,42.4
2018-10-01T13:21:13.615Z,42.4
2018-10-01T13:26:11.536Z,42.4
2018-10-01T13:31:09.907Z,42.3
2018-10-01T13:36:07.780Z,42.3
2018-10-01T13:41:05.402Z,42.3
2018-10-01T13:46:03.081Z,42.3
2018-10-01T13:51:00.996Z,42.3
2018-10-01T13:55:58.936Z,42.2
2018-10-01T14:00:56.812Z,42.2
2018-10-01T14:05:55.284Z,42.2
2018-10-01T14:10:53.173Z,42.2
2018-10-01T14:15:51.103Z,42.2
2018-10-01T14:20:49.030Z,42.2
2018-10-01T14:25:47.110Z,42.1
2018-10-01T14:30:44.895Z,42.1
2018-10-01T14:35:42.926Z,42.1
2018-10-01T14:40:40.825Z,42.1
2018-10-01T14:45:38.846Z,42.1
2018-10-01T14:50:36.729Z,42.1
2018-10-01T14:55:34.690Z,42.1
2018-10-01T15:00:33.153Z,42.1
2018-10-01T15:05:31.137Z,42
2018-10-01T15:10:28.777Z,42
2018-10-01T15:15:26.699Z,42
2018-10-01T15:20:24.681Z,42
2018-10-01T15:25:22.162Z,42
2018-10-01T15:30:19.972Z,41.9
2018-10-01T15:35:17.452Z,41.9
2018-10-01T15:40:15.288Z,41.9
2018-10-01T15:45:13.183Z,41.9
2018-10-01T15:50:11.057Z,41.9
2018-10-01T15:55:08.828Z,41.9
2018-10-01T16:00:06.745Z,41.9
2018-10-01T16:05:04.653Z,41.8
2018-10-01T16:10:02.465Z,41.8
2018-10-01T16:15:00.322Z,41.8
2018-10-01T16:19:58.171Z,41.8
2018-10-01T16:24:56.456Z,41.8
2018-10-01T16:29:54.213Z,41.8
2018-10-01T16:34:52.071Z,41.8
2018-10-01T16:39:49.851Z,41.8
2018-10-01T16:44:47.515Z,41.8
2018-10-01T16:49:45.433Z,41.8
2018-10-01T16:54:42.720Z,41.9
2018-10-01T16:59:40.644Z,41.8
2018-10-01T17:04:38.403Z,41.7
2018-10-01T17:09:36.127Z,41.7
2018-10-01T17:14:34.052Z,41.8
2018-10-01T17:19:32.078Z,41.7
2018-10-01T17:24:29.854Z,41.7
2018-10-01T17:29:28.013Z,41.8
2018-10-01T17:34:25.861Z,41.8
2018-10-01T17:39:23.863Z,41.7
2018-10-01T17:44:21.740Z,41.8
2018-10-01T17:49:19.798Z,41.8
2018-10-01T17:54:17.584Z,41.8
2018-10-01T17:59:15.519Z,41.8
2018-10-01T18:04:13.505Z,41.8
2018-10-01T18:09:11.399Z,41.8
2018-10-01T18:14:09.206Z,41.8
2018-10-01T18:19:06.977Z,41.8
2018-10-01T18:24:04.817Z,41.8
2018-10-01T18:29:02.678Z,41.8
2018-10-01T18:34:00.750Z,41.8
2018-10-01T18:38:58.594Z,41.8
2018-10-01T18:43:56.356Z,41.9
2018-10-01T18:48:54.141Z,41.9
2018-10-01T18:53:52.078Z,41.9
2018-10-01T18:58:50.048Z,41.9
2018-10-01T19:03:47.439Z,41.8
2018-10-01T19:08:45.248Z,41.8
2018-10-01T19:13:43.345Z,41.8
2018-10-01T19:18:41.178Z,41.8
2018-10-01T19:23:39.161Z,41.9
2018-10-01T19:28:36.310Z,41.9
2018-10-01T19:33:34.282Z,41.9
2018-10-01T19:38:32.363Z,42
2018-10-01T19:43:30.415Z,42
2018-10-01T19:48:28.385Z,42
2018-10-01T19:53:26.354Z,42.1
2018-10-01T19:58:24.032Z,42
2018-10-01T20:03:21.919Z,41.9
2018-10-01T20:08:19.743Z,41.9
2018-10-01T20:13:17.613Z,41.8
2018-10-01T20:18:15.494Z,41.9
2018-10-01T20:23:13.282Z,42
2018-10-01T20:28:11.356Z,42
2018-10-01T20:33:09.159Z,42
2018-10-01T20:38:07.043Z,42
2018-10-01T20:43:04.923Z,42
2018-10-01T20:48:02.976Z,42
2018-10-01T20:53:00.760Z,42.1
2018-10-01T20:57:58.642Z,41.9
2018-10-01T21:02:56.519Z,41.9
2018-10-01T21:07:54.392Z,41.8
2018-10-01T21:12:52.307Z,41.8
2018-10-01T21:17:49.978Z,41.9
2018-10-01T21:22:47.760Z,41.9
2018-10-01T21:27:45.429Z,42
2018-10-01T21:32:43.001Z,42
2018-10-01T21:37:41.176Z,42
2018-10-01T21:42:39.137Z,42
2018-10-01T21:47:37.020Z,42
2018-10-01T21:52:34.808Z,42.1
2018-10-01T21:57:32.740Z,42.1
2018-10-01T22:02:30.579Z,42
2018-10-01T22:07:28.357Z,41.9
2018-10-01T22:12:26.313Z,41.8
2018-10-01T22:17:24.281Z,41.7
2018-10-01T22:22:22.142Z,41.9
2018-10-01T22:27:20.308Z,42
2018-10-01T22:32:18.179Z,42
2018-10-01T22:37:16.019Z,42
2018-10-01T22:42:13.898Z,42
2018-10-01T22:47:11.613Z,42.1
2018-10-01T22:52:09.472Z,42.1
2018-10-01T22:57:07.367Z,42.2
2018-10-01T23:02:05.562Z,42.1
2018-10-01T23:07:03.409Z,42
2018-10-01T23:12:01.222Z,41.8
2018-10-01T23:16:58.966Z,41.7
2018-10-01T23:21:56.551Z,41.8
2018-10-01T23:26:54.336Z,41.9
2018-10-01T23:31:52.218Z,42.1
2018-10-01T23:36:50.180Z,42.1
2018-10-01T23:41:48.055Z,42.1
2018-10-01T23:46:45.509Z,42
2018-10-01T23:51:43.249Z,42.1
2018-10-01T23:56:41.100Z,42.1
